Concan, Texas
Current Conditions -  °F | °C
As of 2:35 PM on Sunday 21 Dec 2014 (Local Time) from KUVA Reporting Station
Overcast Overcast  
Wind Chill: 53°   Ceiling: 1200
Heat Index: 53°   Visibility: 10mi
Dew Point: 48°   Wind: 5mph
Humidity: 85%   Direction: 170°S
Pressure: 29.96"   Gusts: NA
Location:  29.5°N, 99.71°W
Report Text: KUVA 212035Z AUTO 17004KT 10SM OVC012 12/09 A2996 RMK AO2 T01150090
Loading
Personal Weather Stations






























Interactive Weather Map New forecast layout! Learn more

10-Day Weather Forecast

Advertisements
Track Severe Weather on mobile